Terminal Aerodrome Forecast
Issued by NWS Grand Forks, ND

Home | Current Version | Previous Version | Text Only | Print | Product List | Glossary Off
Versions: 1 2 3 4 5 6 7 8 9 10 11 12 13 14 15 16 17 18

000
FTUS43 KFGF 061500 AAC
TAFFAR
TAF AMD
KFAR 061522Z 0615/0712 14015G25KT 5SM -RA BR BKN008 OVC012
      TEMPO 0615/0618 2SM -RA BR OVC006
     FM061900 14014G23KT 5SM -RA BR BKN015 OVC025
     FM070400 15011KT P6SM VCSH OVC025=

USA.gov is the U.S. government's official web portal to all federal, state and local government web resources and services.